sensor_id;sensor_type;location;lat;lon;timestamp;P1;durP1;ratioP1;P2;durP2;ratioP2
42864;SDS011;28511;42.680;23.252;2022-10-16T00:01:42;8.77;;;5.10;;
42864;SDS011;28511;42.680;23.252;2022-10-16T00:04:10;9.77;;;4.28;;
42864;SDS011;28511;42.680;23.252;2022-10-16T00:06:35;7.75;;;3.47;;
42864;SDS011;28511;42.680;23.252;2022-10-16T00:09:01;7.80;;;2.75;;
42864;SDS011;28511;42.680;23.252;2022-10-16T00:11:28;9.98;;;4.28;;
42864;SDS011;28511;42.680;23.252;2022-10-16T00:13:56;10.25;;;4.55;;
42864;SDS011;28511;42.680;23.252;2022-10-16T00:16:22;8.13;;;3.85;;
42864;SDS011;28511;42.680;23.252;2022-10-16T00:18:48;9.20;;;3.10;;
42864;SDS011;28511;42.680;23.252;2022-10-16T00:21:15;10.18;;;4.35;;
42864;SDS011;28511;42.680;23.252;2022-10-16T00:23:40;11.40;;;3.33;;
42864;SDS011;28511;42.680;23.252;2022-10-16T00:26:07;8.05;;;4.13;;
42864;SDS011;28511;42.680;23.252;2022-10-16T00:28:33;8.02;;;4.75;;
42864;SDS011;28511;42.680;23.252;2022-10-16T00:31:01;12.77;;;4.63;;
42864;SDS011;28511;42.680;23.252;2022-10-16T00:33:27;8.15;;;4.82;;
42864;SDS011;28511;42.680;23.252;2022-10-16T00:35:52;6.75;;;3.65;;
42864;SDS011;28511;42.680;23.252;2022-10-16T00:38:18;5.93;;;3.45;;
42864;SDS011;28511;42.680;23.252;2022-10-16T00:40:43;7.03;;;4.00;;
42864;SDS011;28511;42.680;23.252;2022-10-16T00:43:12;7.85;;;3.63;;
42864;SDS011;28511;42.680;23.252;2022-10-16T00:45:40;7.35;;;3.33;;
42864;SDS011;28511;42.680;23.252;2022-10-16T00:48:06;8.23;;;3.78;;
42864;SDS011;28511;42.680;23.252;2022-10-16T00:50:35;8.20;;;4.13;;
42864;SDS011;28511;42.680;23.252;2022-10-16T00:53:01;8.73;;;4.20;;
42864;SDS011;28511;42.680;23.252;2022-10-16T00:55:28;7.90;;;3.80;;
42864;SDS011;28511;42.680;23.252;2022-10-16T00:57:55;7.72;;;3.90;;
42864;SDS011;28511;42.680;23.252;2022-10-16T01:00:22;7.30;;;3.58;;
42864;SDS011;28511;42.680;23.252;2022-10-16T01:02:52;7.72;;;4.97;;
42864;SDS011;28511;42.680;23.252;2022-10-16T01:05:17;6.65;;;3.17;;
42864;SDS011;28511;42.680;23.252;2022-10-16T01:12:57;8.73;;;3.58;;
42864;SDS011;28511;42.680;23.252;2022-10-16T01:16:08;8.82;;;4.07;;
42864;SDS011;28511;42.680;23.252;2022-10-16T01:28:10;7.20;;;2.60;;
42864;SDS011;28511;42.680;23.252;2022-10-16T01:30:37;7.30;;;4.05;;
42864;SDS011;28511;42.680;23.252;2022-10-16T01:33:06;8.05;;;3.47;;
42864;SDS011;28511;42.680;23.252;2022-10-16T01:35:35;9.60;;;3.92;;
42864;SDS011;28511;42.680;23.252;2022-10-16T01:40:27;5.85;;;3.65;;
42864;SDS011;28511;42.680;23.252;2022-10-16T01:43:16;8.25;;;4.88;;
42864;SDS011;28511;42.680;23.252;2022-10-16T01:45:40;7.85;;;3.22;;
42864;SDS011;28511;42.680;23.252;2022-10-16T01:48:06;7.22;;;3.53;;
42864;SDS011;28511;42.680;23.252;2022-10-16T01:50:34;8.60;;;4.15;;
42864;SDS011;28511;42.680;23.252;2022-10-16T01:53:00;7.20;;;3.60;;
42864;SDS011;28511;42.680;23.252;2022-10-16T01:55:28;9.18;;;4.43;;
42864;SDS011;28511;42.680;23.252;2022-10-16T01:57:55;5.57;;;2.72;;
42864;SDS011;28511;42.680;23.252;2022-10-16T02:00:22;8.07;;;3.55;;
42864;SDS011;28511;42.680;23.252;2022-10-16T02:02:48;9.02;;;4.13;;
42864;SDS011;28511;42.680;23.252;2022-10-16T02:05:28;7.78;;;3.60;;
42864;SDS011;28511;42.680;23.252;2022-10-16T02:07:55;7.82;;;4.60;;
42864;SDS011;28511;42.680;23.252;2022-10-16T02:10:21;10.77;;;3.90;;
42864;SDS011;28511;42.680;23.252;2022-10-16T02:12:50;10.00;;;4.78;;
42864;SDS011;28511;42.680;23.252;2022-10-16T02:15:20;9.27;;;3.83;;
42864;SDS011;28511;42.680;23.252;2022-10-16T02:17:45;10.10;;;4.90;;
42864;SDS011;28511;42.680;23.252;2022-10-16T02:20:11;7.93;;;3.28;;
42864;SDS011;28511;42.680;23.252;2022-10-16T02:22:43;12.00;;;4.95;;
42864;SDS011;28511;42.680;23.252;2022-10-16T02:25:22;7.85;;;4.05;;
42864;SDS011;28511;42.680;23.252;2022-10-16T02:32:47;8.75;;;4.68;;
42864;SDS011;28511;42.680;23.252;2022-10-16T02:35:13;12.63;;;3.33;;
42864;SDS011;28511;42.680;23.252;2022-10-16T02:37:40;7.28;;;3.67;;
42864;SDS011;28511;42.680;23.252;2022-10-16T02:40:06;10.60;;;5.53;;
42864;SDS011;28511;42.680;23.252;2022-10-16T02:42:37;8.13;;;4.40;;
42864;SDS011;28511;42.680;23.252;2022-10-16T02:45:03;9.82;;;4.47;;
42864;SDS011;28511;42.680;23.252;2022-10-16T02:47:30;9.00;;;4.50;;
42864;SDS011;28511;42.680;23.252;2022-10-16T02:49:56;7.75;;;4.05;;
42864;SDS011;28511;42.680;23.252;2022-10-16T02:52:21;6.68;;;3.55;;
42864;SDS011;28511;42.680;23.252;2022-10-16T02:54:46;8.60;;;4.10;;
42864;SDS011;28511;42.680;23.252;2022-10-16T02:57:12;7.97;;;3.60;;
42864;SDS011;28511;42.680;23.252;2022-10-16T02:59:37;12.20;;;5.45;;
42864;SDS011;28511;42.680;23.252;2022-10-16T03:02:04;10.50;;;4.53;;
42864;SDS011;28511;42.680;23.252;2022-10-16T03:04:35;6.60;;;3.65;;
42864;SDS011;28511;42.680;23.252;2022-10-16T03:07:01;9.60;;;5.13;;
42864;SDS011;28511;42.680;23.252;2022-10-16T03:09:27;11.35;;;4.70;;
42864;SDS011;28511;42.680;23.252;2022-10-16T03:11:53;8.18;;;3.90;;
42864;SDS011;28511;42.680;23.252;2022-10-16T03:14:19;19.80;;;5.90;;
42864;SDS011;28511;42.680;23.252;2022-10-16T03:16:44;8.13;;;4.38;;
42864;SDS011;28511;42.680;23.252;2022-10-16T03:19:10;8.48;;;4.57;;
42864;SDS011;28511;42.680;23.252;2022-10-16T03:21:35;7.13;;;4.07;;
42864;SDS011;28511;42.680;23.252;2022-10-16T03:24:00;10.82;;;3.88;;
42864;SDS011;28511;42.680;23.252;2022-10-16T03:26:25;11.52;;;4.65;;
42864;SDS011;28511;42.680;23.252;2022-10-16T03:28:51;6.20;;;3.22;;
42864;SDS011;28511;42.680;23.252;2022-10-16T03:31:16;5.70;;;3.78;;
42864;SDS011;28511;42.680;23.252;2022-10-16T03:33:42;8.40;;;4.82;;
42864;SDS011;28511;42.680;23.252;2022-10-16T03:36:09;9.40;;;3.85;;
42864;SDS011;28511;42.680;23.252;2022-10-16T03:38:34;6.97;;;3.67;;
42864;SDS011;28511;42.680;23.252;2022-10-16T03:41:02;11.05;;;5.63;;
42864;SDS011;28511;42.680;23.252;2022-10-16T03:43:28;8.90;;;3.72;;
42864;SDS011;28511;42.680;23.252;2022-10-16T03:45:54;8.90;;;4.53;;
42864;SDS011;28511;42.680;23.252;2022-10-16T03:48:19;10.80;;;4.15;;
42864;SDS011;28511;42.680;23.252;2022-10-16T03:50:44;8.23;;;3.65;;
42864;SDS011;28511;42.680;23.252;2022-10-16T03:53:14;9.57;;;3.45;;
42864;SDS011;28511;42.680;23.252;2022-10-16T03:55:41;10.32;;;5.00;;
42864;SDS011;28511;42.680;23.252;2022-10-16T03:58:08;7.47;;;3.35;;
42864;SDS011;28511;42.680;23.252;2022-10-16T04:00:34;10.68;;;3.95;;
42864;SDS011;28511;42.680;23.252;2022-10-16T04:03:00;9.07;;;4.43;;
42864;SDS011;28511;42.680;23.252;2022-10-16T04:05:26;12.77;;;4.65;;
42864;SDS011;28511;42.680;23.252;2022-10-16T04:07:52;8.45;;;4.35;;
42864;SDS011;28511;42.680;23.252;2022-10-16T04:10:17;10.68;;;4.70;;
42864;SDS011;28511;42.680;23.252;2022-10-16T04:12:44;12.00;;;4.85;;
42864;SDS011;28511;42.680;23.252;2022-10-16T04:15:10;13.38;;;5.30;;
42864;SDS011;28511;42.680;23.252;2022-10-16T04:17:36;11.93;;;4.45;;
42864;SDS011;28511;42.680;23.252;2022-10-16T04:20:01;8.73;;;3.97;;
42864;SDS011;28511;42.680;23.252;2022-10-16T04:22:29;9.40;;;5.03;;
42864;SDS011;28511;42.680;23.252;2022-10-16T04:24:56;7.65;;;4.72;;
42864;SDS011;28511;42.680;23.252;2022-10-16T04:27:21;7.13;;;5.38;;
42864;SDS011;28511;42.680;23.252;2022-10-16T04:32:15;9.40;;;4.50;;
42864;SDS011;28511;42.680;23.252;2022-10-16T04:34:41;11.80;;;4.50;;
42864;SDS011;28511;42.680;23.252;2022-10-16T04:37:06;9.80;;;4.30;;
42864;SDS011;28511;42.680;23.252;2022-10-16T04:39:33;6.20;;;3.88;;
42864;SDS011;28511;42.680;23.252;2022-10-16T04:41:59;7.00;;;3.00;;
42864;SDS011;28511;42.680;23.252;2022-10-16T04:44:24;10.60;;;3.75;;
42864;SDS011;28511;42.680;23.252;2022-10-16T04:46:50;15.75;;;4.45;;
42864;SDS011;28511;42.680;23.252;2022-10-16T04:49:15;14.43;;;4.68;;
42864;SDS011;28511;42.680;23.252;2022-10-16T04:51:42;9.00;;;4.70;;
42864;SDS011;28511;42.680;23.252;2022-10-16T04:54:08;5.30;;;3.78;;
42864;SDS011;28511;42.680;23.252;2022-10-16T04:56:35;11.20;;;4.68;;
42864;SDS011;28511;42.680;23.252;2022-10-16T04:59:08;8.55;;;3.80;;
42864;SDS011;28511;42.680;23.252;2022-10-16T05:01:34;6.88;;;3.30;;
42864;SDS011;28511;42.680;23.252;2022-10-16T05:03:59;9.57;;;3.78;;
42864;SDS011;28511;42.680;23.252;2022-10-16T05:06:24;9.75;;;4.15;;
42864;SDS011;28511;42.680;23.252;2022-10-16T05:08:50;10.70;;;5.07;;
42864;SDS011;28511;42.680;23.252;2022-10-16T05:11:15;10.65;;;4.20;;
42864;SDS011;28511;42.680;23.252;2022-10-16T05:13:41;12.70;;;5.28;;
42864;SDS011;28511;42.680;23.252;2022-10-16T05:16:09;15.07;;;5.97;;
42864;SDS011;28511;42.680;23.252;2022-10-16T05:18:35;13.10;;;6.03;;
42864;SDS011;28511;42.680;23.252;2022-10-16T05:21:00;11.75;;;4.90;;
42864;SDS011;28511;42.680;23.252;2022-10-16T05:23:26;9.63;;;5.18;;
42864;SDS011;28511;42.680;23.252;2022-10-16T05:25:52;10.73;;;5.15;;
42864;SDS011;28511;42.680;23.252;2022-10-16T05:28:17;13.23;;;4.22;;
42864;SDS011;28511;42.680;23.252;2022-10-16T05:30:43;10.32;;;4.20;;
42864;SDS011;28511;42.680;23.252;2022-10-16T05:33:08;9.60;;;4.60;;
42864;SDS011;28511;42.680;23.252;2022-10-16T05:35:34;10.93;;;4.80;;
42864;SDS011;28511;42.680;23.252;2022-10-16T05:38:00;12.32;;;5.97;;
42864;SDS011;28511;42.680;23.252;2022-10-16T05:40:27;9.25;;;4.90;;
42864;SDS011;28511;42.680;23.252;2022-10-16T05:42:55;14.75;;;5.97;;
42864;SDS011;28511;42.680;23.252;2022-10-16T05:45:22;16.83;;;5.50;;
42864;SDS011;28511;42.680;23.252;2022-10-16T05:47:47;14.07;;;6.10;;
42864;SDS011;28511;42.680;23.252;2022-10-16T05:50:13;12.53;;;6.10;;
42864;SDS011;28511;42.680;23.252;2022-10-16T05:52:38;15.90;;;7.38;;
42864;SDS011;28511;42.680;23.252;2022-10-16T05:55:04;22.13;;;9.55;;
42864;SDS011;28511;42.680;23.252;2022-10-16T05:57:29;11.98;;;5.97;;
42864;SDS011;28511;42.680;23.252;2022-10-16T05:59:56;14.52;;;6.07;;
42864;SDS011;28511;42.680;23.252;2022-10-16T06:02:21;12.43;;;6.45;;
42864;SDS011;28511;42.680;23.252;2022-10-16T06:04:46;13.75;;;6.47;;
42864;SDS011;28511;42.680;23.252;2022-10-16T06:07:12;10.45;;;5.25;;
42864;SDS011;28511;42.680;23.252;2022-10-16T06:09:37;10.20;;;5.43;;
42864;SDS011;28511;42.680;23.252;2022-10-16T06:12:03;10.45;;;5.47;;
42864;SDS011;28511;42.680;23.252;2022-10-16T06:14:28;11.50;;;6.53;;
42864;SDS011;28511;42.680;23.252;2022-10-16T06:16:54;14.60;;;7.22;;
42864;SDS011;28511;42.680;23.252;2022-10-16T06:19:19;13.65;;;7.32;;
42864;SDS011;28511;42.680;23.252;2022-10-16T06:21:45;13.40;;;7.03;;
42864;SDS011;28511;42.680;23.252;2022-10-16T06:24:10;17.20;;;8.02;;
42864;SDS011;28511;42.680;23.252;2022-10-16T06:26:36;10.68;;;5.97;;
42864;SDS011;28511;42.680;23.252;2022-10-16T06:29:02;12.73;;;5.97;;
42864;SDS011;28511;42.680;23.252;2022-10-16T06:31:28;8.68;;;4.45;;
42864;SDS011;28511;42.680;23.252;2022-10-16T06:33:57;10.88;;;5.10;;
42864;SDS011;28511;42.680;23.252;2022-10-16T06:36:24;7.38;;;4.47;;
42864;SDS011;28511;42.680;23.252;2022-10-16T06:38:50;7.97;;;4.93;;
42864;SDS011;28511;42.680;23.252;2022-10-16T06:41:16;13.50;;;5.72;;
42864;SDS011;28511;42.680;23.252;2022-10-16T06:43:42;10.60;;;4.43;;
42864;SDS011;28511;42.680;23.252;2022-10-16T06:46:09;9.68;;;4.40;;
42864;SDS011;28511;42.680;23.252;2022-10-16T06:48:38;9.18;;;5.38;;
42864;SDS011;28511;42.680;23.252;2022-10-16T06:51:11;9.60;;;5.18;;
42864;SDS011;28511;42.680;23.252;2022-10-16T06:53:37;7.65;;;4.68;;
42864;SDS011;28511;42.680;23.252;2022-10-16T06:56:07;10.75;;;6.05;;
42864;SDS011;28511;42.680;23.252;2022-10-16T06:58:33;12.35;;;5.93;;
42864;SDS011;28511;42.680;23.252;2022-10-16T07:00:59;10.63;;;5.22;;
42864;SDS011;28511;42.680;23.252;2022-10-16T07:03:24;10.52;;;5.22;;
42864;SDS011;28511;42.680;23.252;2022-10-16T07:05:49;11.30;;;5.17;;
42864;SDS011;28511;42.680;23.252;2022-10-16T07:08:17;13.05;;;5.03;;
42864;SDS011;28511;42.680;23.252;2022-10-16T07:10:42;9.50;;;4.93;;
42864;SDS011;28511;42.680;23.252;2022-10-16T07:13:08;10.48;;;4.75;;
42864;SDS011;28511;42.680;23.252;2022-10-16T07:15:35;12.75;;;5.97;;
42864;SDS011;28511;42.680;23.252;2022-10-16T07:18:00;8.10;;;5.53;;
42864;SDS011;28511;42.680;23.252;2022-10-16T07:20:26;8.93;;;5.80;;
42864;SDS011;28511;42.680;23.252;2022-10-16T07:22:51;12.27;;;6.45;;
42864;SDS011;28511;42.680;23.252;2022-10-16T07:25:17;11.68;;;7.05;;
42864;SDS011;28511;42.680;23.252;2022-10-16T07:27:42;11.30;;;6.67;;
42864;SDS011;28511;42.680;23.252;2022-10-16T07:30:08;9.73;;;6.05;;
42864;SDS011;28511;42.680;23.252;2022-10-16T07:32:33;12.98;;;6.70;;
42864;SDS011;28511;42.680;23.252;2022-10-16T07:34:59;9.77;;;5.40;;
42864;SDS011;28511;42.680;23.252;2022-10-16T07:37:24;10.43;;;6.25;;
42864;SDS011;28511;42.680;23.252;2022-10-16T07:39:49;9.70;;;5.63;;
42864;SDS011;28511;42.680;23.252;2022-10-16T07:42:17;9.20;;;5.50;;
42864;SDS011;28511;42.680;23.252;2022-10-16T07:44:42;9.23;;;5.13;;
42864;SDS011;28511;42.680;23.252;2022-10-16T07:47:07;10.93;;;5.20;;
42864;SDS011;28511;42.680;23.252;2022-10-16T07:49:34;12.73;;;5.53;;
42864;SDS011;28511;42.680;23.252;2022-10-16T07:52:00;10.07;;;5.07;;
42864;SDS011;28511;42.680;23.252;2022-10-16T07:54:25;9.60;;;5.80;;
42864;SDS011;28511;42.680;23.252;2022-10-16T07:56:51;9.45;;;4.32;;
42864;SDS011;28511;42.680;23.252;2022-10-16T07:59:17;9.13;;;5.22;;
42864;SDS011;28511;42.680;23.252;2022-10-16T08:01:43;10.88;;;4.90;;
42864;SDS011;28511;42.680;23.252;2022-10-16T08:04:09;12.25;;;5.43;;
42864;SDS011;28511;42.680;23.252;2022-10-16T08:06:38;11.20;;;5.13;;
42864;SDS011;28511;42.680;23.252;2022-10-16T08:09:05;9.50;;;5.30;;
42864;SDS011;28511;42.680;23.252;2022-10-16T08:11:31;8.35;;;4.68;;
42864;SDS011;28511;42.680;23.252;2022-10-16T08:13:56;9.90;;;5.90;;
42864;SDS011;28511;42.680;23.252;2022-10-16T08:16:21;11.90;;;6.25;;
42864;SDS011;28511;42.680;23.252;2022-10-16T08:18:47;12.57;;;6.00;;
42864;SDS011;28511;42.680;23.252;2022-10-16T08:21:14;11.75;;;5.85;;
42864;SDS011;28511;42.680;23.252;2022-10-16T08:23:40;13.38;;;6.18;;
42864;SDS011;28511;42.680;23.252;2022-10-16T08:26:06;13.23;;;5.35;;
42864;SDS011;28511;42.680;23.252;2022-10-16T08:28:32;11.48;;;6.43;;
42864;SDS011;28511;42.680;23.252;2022-10-16T08:31:18;12.82;;;5.18;;
42864;SDS011;28511;42.680;23.252;2022-10-16T08:33:44;10.80;;;5.35;;
42864;SDS011;28511;42.680;23.252;2022-10-16T08:36:12;6.45;;;4.28;;
42864;SDS011;28511;42.680;23.252;2022-10-16T08:38:38;10.23;;;5.15;;
42864;SDS011;28511;42.680;23.252;2022-10-16T08:41:15;8.30;;;4.35;;
42864;SDS011;28511;42.680;23.252;2022-10-16T08:46:21;5.63;;;3.47;;
42864;SDS011;28511;42.680;23.252;2022-10-16T08:53:46;8.82;;;3.78;;
42864;SDS011;28511;42.680;23.252;2022-10-16T08:56:15;9.83;;;3.37;;
42864;SDS011;28511;42.680;23.252;2022-10-16T08:58:40;5.55;;;3.30;;
42864;SDS011;28511;42.680;23.252;2022-10-16T09:01:11;6.97;;;3.00;;
42864;SDS011;28511;42.680;23.252;2022-10-16T09:11:50;4.72;;;2.47;;
42864;SDS011;28511;42.680;23.252;2022-10-16T09:17:29;7.20;;;3.40;;
42864;SDS011;28511;42.680;23.252;2022-10-16T09:22:41;5.88;;;3.25;;
42864;SDS011;28511;42.680;23.252;2022-10-16T09:25:14;5.43;;;2.67;;
42864;SDS011;28511;42.680;23.252;2022-10-16T09:27:42;5.20;;;2.53;;
42864;SDS011;28511;42.680;23.252;2022-10-16T09:30:26;4.20;;;2.28;;
42864;SDS011;28511;42.680;23.252;2022-10-16T09:32:52;4.63;;;2.05;;
42864;SDS011;28511;42.680;23.252;2022-10-16T09:35:31;4.53;;;1.90;;
42864;SDS011;28511;42.680;23.252;2022-10-16T09:37:58;5.65;;;2.50;;
42864;SDS011;28511;42.680;23.252;2022-10-16T09:40:25;5.47;;;2.00;;
42864;SDS011;28511;42.680;23.252;2022-10-16T09:42:52;4.88;;;2.17;;
42864;SDS011;28511;42.680;23.252;2022-10-16T09:45:22;4.63;;;2.75;;
42864;SDS011;28511;42.680;23.252;2022-10-16T09:47:48;14.48;;;2.47;;
42864;SDS011;28511;42.680;23.252;2022-10-16T09:50:25;3.97;;;2.17;;
42864;SDS011;28511;42.680;23.252;2022-10-16T09:53:13;3.85;;;2.25;;
42864;SDS011;28511;42.680;23.252;2022-10-16T09:55:47;5.97;;;3.50;;
42864;SDS011;28511;42.680;23.252;2022-10-16T09:58:13;3.15;;;1.50;;
42864;SDS011;28511;42.680;23.252;2022-10-16T10:00:39;3.67;;;1.52;;
42864;SDS011;28511;42.680;23.252;2022-10-16T10:03:09;3.50;;;1.92;;
42864;SDS011;28511;42.680;23.252;2022-10-16T10:05:35;6.28;;;1.77;;
42864;SDS011;28511;42.680;23.252;2022-10-16T10:08:01;4.03;;;2.08;;
42864;SDS011;28511;42.680;23.252;2022-10-16T10:10:31;3.95;;;2.30;;
42864;SDS011;28511;42.680;23.252;2022-10-16T10:12:57;2.42;;;1.60;;
42864;SDS011;28511;42.680;23.252;2022-10-16T10:15:24;4.65;;;2.20;;
42864;SDS011;28511;42.680;23.252;2022-10-16T10:17:57;2.80;;;1.90;;
42864;SDS011;28511;42.680;23.252;2022-10-16T10:20:29;5.32;;;2.13;;
42864;SDS011;28511;42.680;23.252;2022-10-16T10:22:58;2.90;;;1.73;;
42864;SDS011;28511;42.680;23.252;2022-10-16T10:38:53;3.33;;;1.73;;
42864;SDS011;28511;42.680;23.252;2022-10-16T10:46:32;3.47;;;2.00;;
42864;SDS011;28511;42.680;23.252;2022-10-16T10:51:56;2.00;;;1.42;;
42864;SDS011;28511;42.680;23.252;2022-10-16T10:54:29;5.40;;;1.85;;
42864;SDS011;28511;42.680;23.252;2022-10-16T10:56:59;2.85;;;2.13;;
42864;SDS011;28511;42.680;23.252;2022-10-16T10:59:30;2.10;;;1.50;;
42864;SDS011;28511;42.680;23.252;2022-10-16T11:02:15;4.63;;;1.50;;
42864;SDS011;28511;42.680;23.252;2022-10-16T11:07:15;4.93;;;2.58;;
42864;SDS011;28511;42.680;23.252;2022-10-16T11:09:51;2.58;;;1.23;;
42864;SDS011;28511;42.680;23.252;2022-10-16T11:12:18;6.72;;;1.38;;
42864;SDS011;28511;42.680;23.252;2022-10-16T11:14:48;3.53;;;2.03;;
42864;SDS011;28511;42.680;23.252;2022-10-16T11:17:38;3.55;;;1.83;;
42864;SDS011;28511;42.680;23.252;2022-10-16T11:20:05;5.40;;;2.30;;
42864;SDS011;28511;42.680;23.252;2022-10-16T11:22:37;4.38;;;1.80;;
42864;SDS011;28511;42.680;23.252;2022-10-16T11:27:37;4.88;;;2.13;;
42864;SDS011;28511;42.680;23.252;2022-10-16T11:30:06;4.18;;;1.67;;
42864;SDS011;28511;42.680;23.252;2022-10-16T11:32:49;3.80;;;2.08;;
42864;SDS011;28511;42.680;23.252;2022-10-16T11:35:19;3.47;;;1.73;;
42864;SDS011;28511;42.680;23.252;2022-10-16T11:42:49;4.28;;;2.22;;
42864;SDS011;28511;42.680;23.252;2022-10-16T11:45:23;3.05;;;1.90;;
42864;SDS011;28511;42.680;23.252;2022-10-16T11:53:00;2.15;;;1.40;;
42864;SDS011;28511;42.680;23.252;2022-10-16T11:55:28;3.08;;;1.73;;
42864;SDS011;28511;42.680;23.252;2022-10-16T12:00:46;3.17;;;1.83;;
42864;SDS011;28511;42.680;23.252;2022-10-16T12:03:17;3.67;;;2.08;;
42864;SDS011;28511;42.680;23.252;2022-10-16T12:08:21;2.92;;;1.95;;
42864;SDS011;28511;42.680;23.252;2022-10-16T12:10:47;3.20;;;1.50;;
42864;SDS011;28511;42.680;23.252;2022-10-16T12:16:03;1.55;;;1.10;;
42864;SDS011;28511;42.680;23.252;2022-10-16T12:18:29;2.95;;;1.30;;
42864;SDS011;28511;42.680;23.252;2022-10-16T12:20:58;2.88;;;1.48;;
42864;SDS011;28511;42.680;23.252;2022-10-16T12:23:29;3.55;;;1.70;;
42864;SDS011;28511;42.680;23.252;2022-10-16T12:25:55;3.63;;;1.70;;
42864;SDS011;28511;42.680;23.252;2022-10-16T12:28:22;2.78;;;1.85;;
42864;SDS011;28511;42.680;23.252;2022-10-16T12:31:01;3.15;;;1.85;;
42864;SDS011;28511;42.680;23.252;2022-10-16T12:33:39;3.03;;;1.60;;
42864;SDS011;28511;42.680;23.252;2022-10-16T12:36:07;3.45;;;1.40;;
42864;SDS011;28511;42.680;23.252;2022-10-16T12:38:45;5.30;;;1.67;;
42864;SDS011;28511;42.680;23.252;2022-10-16T12:41:12;3.88;;;1.45;;
42864;SDS011;28511;42.680;23.252;2022-10-16T12:43:48;2.65;;;1.90;;
42864;SDS011;28511;42.680;23.252;2022-10-16T12:48:43;2.60;;;1.48;;
42864;SDS011;28511;42.680;23.252;2022-10-16T12:51:19;3.35;;;1.33;;
42864;SDS011;28511;42.680;23.252;2022-10-16T12:53:46;3.47;;;1.75;;
42864;SDS011;28511;42.680;23.252;2022-10-16T12:58:59;3.58;;;1.92;;
42864;SDS011;28511;42.680;23.252;2022-10-16T13:09:24;2.75;;;1.50;;
42864;SDS011;28511;42.680;23.252;2022-10-16T13:27:18;2.77;;;1.43;;
42864;SDS011;28511;42.680;23.252;2022-10-16T13:29:52;2.58;;;1.58;;
42864;SDS011;28511;42.680;23.252;2022-10-16T13:32:18;2.95;;;1.55;;
42864;SDS011;28511;42.680;23.252;2022-10-16T13:34:46;15.57;;;2.92;;
42864;SDS011;28511;42.680;23.252;2022-10-16T13:37:18;2.38;;;1.90;;
42864;SDS011;28511;42.680;23.252;2022-10-16T13:39:44;2.90;;;1.65;;
42864;SDS011;28511;42.680;23.252;2022-10-16T13:42:11;2.60;;;1.33;;
42864;SDS011;28511;42.680;23.252;2022-10-16T13:44:43;3.42;;;1.63;;
42864;SDS011;28511;42.680;23.252;2022-10-16T13:49:44;2.42;;;1.40;;
42864;SDS011;28511;42.680;23.252;2022-10-16T13:52:20;3.33;;;1.73;;
42864;SDS011;28511;42.680;23.252;2022-10-16T13:54:46;2.63;;;1.23;;
42864;SDS011;28511;42.680;23.252;2022-10-16T13:57:15;3.85;;;1.60;;
42864;SDS011;28511;42.680;23.252;2022-10-16T13:59:41;5.05;;;1.73;;
42864;SDS011;28511;42.680;23.252;2022-10-16T14:02:26;2.13;;;1.55;;
42864;SDS011;28511;42.680;23.252;2022-10-16T14:04:52;5.88;;;1.88;;
42864;SDS011;28511;42.680;23.252;2022-10-16T14:07:23;4.30;;;1.90;;
42864;SDS011;28511;42.680;23.252;2022-10-16T14:09:50;2.60;;;1.92;;
42864;SDS011;28511;42.680;23.252;2022-10-16T14:12:16;3.08;;;1.58;;
42864;SDS011;28511;42.680;23.252;2022-10-16T14:14:48;3.45;;;2.25;;
42864;SDS011;28511;42.680;23.252;2022-10-16T14:17:19;2.78;;;1.77;;
42864;SDS011;28511;42.680;23.252;2022-10-16T14:19:46;2.83;;;1.80;;
42864;SDS011;28511;42.680;23.252;2022-10-16T14:22:45;2.40;;;1.73;;
42864;SDS011;28511;42.680;23.252;2022-10-16T14:25:21;2.83;;;1.40;;
42864;SDS011;28511;42.680;23.252;2022-10-16T14:28:02;3.03;;;1.90;;
42864;SDS011;28511;42.680;23.252;2022-10-16T14:30:28;1.83;;;1.30;;
42864;SDS011;28511;42.680;23.252;2022-10-16T14:35:34;1.27;;;0.93;;
42864;SDS011;28511;42.680;23.252;2022-10-16T14:38:02;2.95;;;1.45;;
42864;SDS011;28511;42.680;23.252;2022-10-16T14:40:29;2.17;;;1.25;;
42864;SDS011;28511;42.680;23.252;2022-10-16T14:42:54;2.88;;;1.77;;
42864;SDS011;28511;42.680;23.252;2022-10-16T14:45:21;3.33;;;1.80;;
42864;SDS011;28511;42.680;23.252;2022-10-16T14:47:51;6.85;;;3.53;;
42864;SDS011;28511;42.680;23.252;2022-10-16T14:50:18;6.18;;;3.05;;
42864;SDS011;28511;42.680;23.252;2022-10-16T14:52:44;5.13;;;2.97;;
42864;SDS011;28511;42.680;23.252;2022-10-16T14:55:10;3.40;;;1.83;;
42864;SDS011;28511;42.680;23.252;2022-10-16T14:57:38;3.13;;;2.22;;
42864;SDS011;28511;42.680;23.252;2022-10-16T15:00:15;4.80;;;3.08;;
42864;SDS011;28511;42.680;23.252;2022-10-16T15:02:41;3.83;;;2.20;;
42864;SDS011;28511;42.680;23.252;2022-10-16T15:07:36;4.95;;;2.38;;
42864;SDS011;28511;42.680;23.252;2022-10-16T15:10:03;2.10;;;1.52;;
42864;SDS011;28511;42.680;23.252;2022-10-16T15:12:28;6.70;;;2.38;;
42864;SDS011;28511;42.680;23.252;2022-10-16T15:14:54;4.95;;;2.50;;
42864;SDS011;28511;42.680;23.252;2022-10-16T15:17:21;4.28;;;2.28;;
42864;SDS011;28511;42.680;23.252;2022-10-16T15:19:48;2.88;;;1.80;;
42864;SDS011;28511;42.680;23.252;2022-10-16T15:22:15;5.85;;;2.20;;
42864;SDS011;28511;42.680;23.252;2022-10-16T15:24:41;3.40;;;1.63;;
42864;SDS011;28511;42.680;23.252;2022-10-16T15:27:06;8.10;;;1.75;;
42864;SDS011;28511;42.680;23.252;2022-10-16T15:29:32;20.52;;;9.13;;
42864;SDS011;28511;42.680;23.252;2022-10-16T15:31:57;9.80;;;3.30;;
42864;SDS011;28511;42.680;23.252;2022-10-16T15:34:22;3.50;;;2.13;;
42864;SDS011;28511;42.680;23.252;2022-10-16T15:36:47;3.15;;;1.25;;
42864;SDS011;28511;42.680;23.252;2022-10-16T15:39:14;2.97;;;1.75;;
42864;SDS011;28511;42.680;23.252;2022-10-16T15:41:39;3.30;;;2.22;;
42864;SDS011;28511;42.680;23.252;2022-10-16T15:44:05;4.65;;;2.17;;
42864;SDS011;28511;42.680;23.252;2022-10-16T15:46:30;4.65;;;2.00;;
42864;SDS011;28511;42.680;23.252;2022-10-16T15:49:04;4.15;;;2.22;;
42864;SDS011;28511;42.680;23.252;2022-10-16T15:51:30;4.90;;;2.30;;
42864;SDS011;28511;42.680;23.252;2022-10-16T15:53:58;4.18;;;2.10;;
42864;SDS011;28511;42.680;23.252;2022-10-16T15:56:24;3.25;;;1.52;;
42864;SDS011;28511;42.680;23.252;2022-10-16T15:58:50;2.85;;;1.23;;
42864;SDS011;28511;42.680;23.252;2022-10-16T16:01:17;4.55;;;1.80;;
42864;SDS011;28511;42.680;23.252;2022-10-16T16:03:45;7.15;;;2.05;;
42864;SDS011;28511;42.680;23.252;2022-10-16T16:06:11;3.17;;;2.10;;
42864;SDS011;28511;42.680;23.252;2022-10-16T16:08:37;5.00;;;2.42;;
42864;SDS011;28511;42.680;23.252;2022-10-16T16:11:06;6.38;;;2.72;;
42864;SDS011;28511;42.680;23.252;2022-10-16T16:13:32;6.93;;;2.67;;
42864;SDS011;28511;42.680;23.252;2022-10-16T16:15:58;6.35;;;2.38;;
42864;SDS011;28511;42.680;23.252;2022-10-16T16:18:24;4.72;;;2.67;;
42864;SDS011;28511;42.680;23.252;2022-10-16T16:20:50;3.95;;;2.58;;
42864;SDS011;28511;42.680;23.252;2022-10-16T16:23:16;4.05;;;2.28;;
42864;SDS011;28511;42.680;23.252;2022-10-16T16:25:41;6.40;;;2.45;;
42864;SDS011;28511;42.680;23.252;2022-10-16T16:28:07;4.65;;;2.70;;
42864;SDS011;28511;42.680;23.252;2022-10-16T16:30:35;6.18;;;2.28;;
42864;SDS011;28511;42.680;23.252;2022-10-16T16:33:01;6.38;;;2.88;;
42864;SDS011;28511;42.680;23.252;2022-10-16T16:35:26;4.22;;;2.38;;
42864;SDS011;28511;42.680;23.252;2022-10-16T16:37:51;7.20;;;2.65;;
42864;SDS011;28511;42.680;23.252;2022-10-16T16:40:17;4.63;;;2.15;;
42864;SDS011;28511;42.680;23.252;2022-10-16T16:42:42;5.78;;;2.83;;